CheckWX is a tool to help pilots better visualize weather data.  It is not intended as a substitute for an official pre-flight weather briefing.

18:22:28 UTC

EHAM METAR
Amsterdam Schiphol Airport
Amsterdam, The Netherlands
Current

57 mins ago

EHAM 061725Z 26013KT 230V290 9999 FEW014 12/10 Q1022 NOSIG
Observed
Apr-6 @ 17:25 UTC
Wind
  • 260° at 13 KTS
Visibility
10,000+ meters
Flight Rules
VFR
Cloud Levels
  • Few at 1,400' AGL
Temperature
12°C / 54°F
Dewpoint
10°C / 50°F
Humidity
88%
Altimeter
30.18" Hg
Pressure
1021.92 hPa
Previous

1 hour ago

EHAM 061655Z 25012KT 220V280 9999 -RA FEW007 SCT048 13/11 Q1021 NOSIG
Observed
Apr-6 @ 16:55 UTC
Wind
  • 250° at 12 KTS
Visibility
10,000+ meters
Flight Rules
VFR
Conditions
Light Rain
Cloud Levels
  • Few at 700' AGL
  • Scattered at 4,800' AGL
Temperature
13°C / 55°F
Dewpoint
11°C / 52°F
Humidity
88%
Altimeter
30.15" Hg
Pressure
1020.92 hPa
Previous

2 hours ago

EHAM 061625Z 25014KT 220V280 9999 -RA FEW007 13/10 Q1021 NOSIG
Observed
Apr-6 @ 16:25 UTC
Wind
  • 250° at 14 KTS
Visibility
10,000+ meters
Flight Rules
VFR
Conditions
Light Rain
Cloud Levels
  • Few at 700' AGL
Temperature
13°C / 55°F
Dewpoint
10°C / 50°F
Humidity
82%
Altimeter
30.15" Hg
Pressure
1020.92 hPa